sensor_id;sensor_type;location;lat;lon;timestamp;pressure;altitude;pressure_sealevel;temperature;humidity
5812;BME280;2932;52.400;9.558;2022-08-11T00:00:12;101809.72;;;22.21;61.62
5812;BME280;2932;52.400;9.558;2022-08-11T00:02:41;101818.13;;;22.07;62.01
5812;BME280;2932;52.400;9.558;2022-08-11T00:07:51;101806.09;;;22.17;61.74
5812;BME280;2932;52.400;9.558;2022-08-11T00:10:25;101814.09;;;22.08;62.02
5812;BME280;2932;52.400;9.558;2022-08-11T00:13:03;101807.28;;;22.13;62.18
5812;BME280;2932;52.400;9.558;2022-08-11T00:15:42;101809.25;;;22.05;62.26
5812;BME280;2932;52.400;9.558;2022-08-11T00:18:08;101803.69;;;22.19;61.81
5812;BME280;2932;52.400;9.558;2022-08-11T00:20:37;101804.50;;;22.23;61.60
5812;BME280;2932;52.400;9.558;2022-08-11T00:23:11;101811.69;;;22.10;62.05
5812;BME280;2932;52.400;9.558;2022-08-11T00:25:45;101810.06;;;22.06;62.18
5812;BME280;2932;52.400;9.558;2022-08-11T00:30:54;101812.41;;;21.93;62.83
5812;BME280;2932;52.400;9.558;2022-08-11T00:33:22;101809.97;;;21.91;62.69
5812;BME280;2932;52.400;9.558;2022-08-11T00:35:49;101811.59;;;21.92;62.58
5812;BME280;2932;52.400;9.558;2022-08-11T00:38:16;101811.56;;;21.85;62.89
5812;BME280;2932;52.400;9.558;2022-08-11T00:40:55;101805.88;;;21.78;62.71
5812;BME280;2932;52.400;9.558;2022-08-11T00:51:51;101801.66;;;21.47;63.53
5812;BME280;2932;52.400;9.558;2022-08-11T01:00:32;101798.28;;;21.24;63.69
5812;BME280;2932;52.400;9.558;2022-08-11T01:03:18;101806.16;;;21.08;64.29
5812;BME280;2932;52.400;9.558;2022-08-11T01:08:57;101807.47;;;21.17;63.42
5812;BME280;2932;52.400;9.558;2022-08-11T01:40:40;101814.88;;;20.92;63.56
5812;BME280;2932;52.400;9.558;2022-08-11T01:49:53;101805.72;;;20.61;65.13
5812;BME280;2932;52.400;9.558;2022-08-11T01:52:45;101808.34;;;20.44;65.40
5812;BME280;2932;52.400;9.558;2022-08-11T01:58:59;101813.25;;;20.50;65.23
5812;BME280;2932;52.400;9.558;2022-08-11T02:02:01;101813.28;;;20.54;65.12
5812;BME280;2932;52.400;9.558;2022-08-11T02:10:23;101809.00;;;20.00;67.08
5812;BME280;2932;52.400;9.558;2022-08-11T02:16:09;101824.34;;;19.76;67.34
5812;BME280;2932;52.400;9.558;2022-08-11T02:18:41;101809.84;;;20.04;66.60
5812;BME280;2932;52.400;9.558;2022-08-11T02:21:48;101809.00;;;20.00;66.31
5812;BME280;2932;52.400;9.558;2022-08-11T02:24:39;101812.34;;;19.79;69.33
5812;BME280;2932;52.400;9.558;2022-08-11T02:27:21;101811.66;;;19.59;69.88
5812;BME280;2932;52.400;9.558;2022-08-11T02:30:01;101809.31;;;19.65;71.05
5812;BME280;2932;52.400;9.558;2022-08-11T02:32:40;101812.97;;;19.95;68.96
5812;BME280;2932;52.400;9.558;2022-08-11T02:38:54;101810.31;;;19.01;71.00
5812;BME280;2932;52.400;9.558;2022-08-11T02:48:05;101819.78;;;19.42;70.80
5812;BME280;2932;52.400;9.558;2022-08-11T02:53:38;101817.78;;;19.16;71.66
5812;BME280;2932;52.400;9.558;2022-08-11T02:56:18;101813.88;;;19.24;71.97
5812;BME280;2932;52.400;9.558;2022-08-11T02:59:12;101815.69;;;19.62;70.33
5812;BME280;2932;52.400;9.558;2022-08-11T03:07:31;101811.38;;;19.68;70.29
5812;BME280;2932;52.400;9.558;2022-08-11T03:10:03;101819.28;;;19.59;69.94
5812;BME280;2932;52.400;9.558;2022-08-11T03:12:39;101815.03;;;19.72;69.48
5812;BME280;2932;52.400;9.558;2022-08-11T03:15:31;101812.13;;;19.91;68.28
5812;BME280;2932;52.400;9.558;2022-08-11T03:18:50;101808.13;;;19.92;68.57
5812;BME280;2932;52.400;9.558;2022-08-11T03:21:23;101817.41;;;19.70;68.63
5812;BME280;2932;52.400;9.558;2022-08-11T03:24:07;101814.66;;;19.74;68.44
5812;BME280;2932;52.400;9.558;2022-08-11T03:35:53;101815.13;;;19.26;70.29
5812;BME280;2932;52.400;9.558;2022-08-11T03:38:25;101816.16;;;19.41;70.15
5812;BME280;2932;52.400;9.558;2022-08-11T03:41:15;101815.47;;;19.48;69.82
5812;BME280;2932;52.400;9.558;2022-08-11T03:55:45;101817.03;;;19.19;70.62
5812;BME280;2932;52.400;9.558;2022-08-11T03:58:35;101815.34;;;19.14;70.88
5812;BME280;2932;52.400;9.558;2022-08-11T04:01:37;101820.59;;;19.16;70.69
5812;BME280;2932;52.400;9.558;2022-08-11T04:30:49;101818.22;;;19.18;72.38
5812;BME280;2932;52.400;9.558;2022-08-11T04:33:53;101815.41;;;19.18;70.71
5812;BME280;2932;52.400;9.558;2022-08-11T04:39:33;101819.13;;;19.25;71.33
5812;BME280;2932;52.400;9.558;2022-08-11T04:58:51;101812.75;;;20.11;68.94
5812;BME280;2932;52.400;9.558;2022-08-11T05:12:52;101809.63;;;20.16;67.59
5812;BME280;2932;52.400;9.558;2022-08-11T05:15:24;101808.03;;;20.19;67.57
5812;BME280;2932;52.400;9.558;2022-08-11T05:18:20;101807.44;;;20.36;67.41
5812;BME280;2932;52.400;9.558;2022-08-11T05:21:10;101819.16;;;20.38;67.63
5812;BME280;2932;52.400;9.558;2022-08-11T05:24:12;101819.97;;;20.39;67.61
5812;BME280;2932;52.400;9.558;2022-08-11T05:27:02;101813.78;;;20.63;66.76
5812;BME280;2932;52.400;9.558;2022-08-11T05:30:08;101818.38;;;20.82;66.61
5812;BME280;2932;52.400;9.558;2022-08-11T05:33:01;101810.41;;;20.87;65.62
5812;BME280;2932;52.400;9.558;2022-08-11T05:35:47;101812.00;;;20.88;65.71
5812;BME280;2932;52.400;9.558;2022-08-11T05:38:23;101812.47;;;20.94;65.55
5812;BME280;2932;52.400;9.558;2022-08-11T05:41:11;101815.38;;;21.05;65.10
5812;BME280;2932;52.400;9.558;2022-08-11T05:44:00;101809.31;;;20.99;65.28
5812;BME280;2932;52.400;9.558;2022-08-11T05:46:44;101816.63;;;21.07;64.85
5812;BME280;2932;52.400;9.558;2022-08-11T05:49:31;101824.81;;;21.23;64.48
5812;BME280;2932;52.400;9.558;2022-08-11T05:52:27;101820.00;;;21.27;64.51
5812;BME280;2932;52.400;9.558;2022-08-11T05:55:13;101820.25;;;21.55;63.66
5812;BME280;2932;52.400;9.558;2022-08-11T05:58:01;101821.81;;;21.53;63.18
5812;BME280;2932;52.400;9.558;2022-08-11T06:00:27;101812.22;;;21.57;63.15
5812;BME280;2932;52.400;9.558;2022-08-11T06:02:56;101816.09;;;21.39;63.49
5812;BME280;2932;52.400;9.558;2022-08-11T06:05:24;101824.28;;;21.61;62.90
5812;BME280;2932;52.400;9.558;2022-08-11T06:07:57;101818.75;;;21.76;62.86
5812;BME280;2932;52.400;9.558;2022-08-11T06:10:29;101810.31;;;21.79;63.00
5812;BME280;2932;52.400;9.558;2022-08-11T06:12:57;101819.69;;;22.01;62.55
5812;BME280;2932;52.400;9.558;2022-08-11T06:15:25;101815.63;;;21.95;61.77
5812;BME280;2932;52.400;9.558;2022-08-11T06:17:51;101817.31;;;22.10;61.70
5812;BME280;2932;52.400;9.558;2022-08-11T06:20:19;101807.69;;;22.15;62.37
5812;BME280;2932;52.400;9.558;2022-08-11T06:22:49;101813.69;;;22.10;61.18
5812;BME280;2932;52.400;9.558;2022-08-11T06:25:20;101808.78;;;22.00;61.45
5812;BME280;2932;52.400;9.558;2022-08-11T06:27:46;101811.31;;;22.19;62.04
5812;BME280;2932;52.400;9.558;2022-08-11T06:30:32;101805.34;;;22.45;61.64
5812;BME280;2932;52.400;9.558;2022-08-11T06:32:59;101804.56;;;22.52;61.31
5812;BME280;2932;52.400;9.558;2022-08-11T06:35:37;101799.34;;;22.54;60.44
5812;BME280;2932;52.400;9.558;2022-08-11T06:38:24;101805.75;;;22.47;59.92
5812;BME280;2932;52.400;9.558;2022-08-11T06:41:01;101805.38;;;22.56;60.10
5812;BME280;2932;52.400;9.558;2022-08-11T06:46:37;101805.44;;;22.74;59.71
5812;BME280;2932;52.400;9.558;2022-08-11T06:49:05;101800.22;;;22.86;59.21
5812;BME280;2932;52.400;9.558;2022-08-11T06:51:33;101806.66;;;22.83;59.42
5812;BME280;2932;52.400;9.558;2022-08-11T06:54:04;101801.44;;;22.89;59.47
5812;BME280;2932;52.400;9.558;2022-08-11T06:56:39;101808.72;;;23.11;59.74
5812;BME280;2932;52.400;9.558;2022-08-11T06:59:25;101808.28;;;23.41;59.33
5812;BME280;2932;52.400;9.558;2022-08-11T07:02:21;101807.47;;;23.51;59.27
5812;BME280;2932;52.400;9.558;2022-08-11T07:04:58;101811.09;;;23.63;59.24
5812;BME280;2932;52.400;9.558;2022-08-11T07:08:01;101811.91;;;23.59;58.82
5812;BME280;2932;52.400;9.558;2022-08-11T07:11:26;101807.06;;;23.60;58.82
5812;BME280;2932;52.400;9.558;2022-08-11T07:14:20;101811.84;;;23.81;58.77
5812;BME280;2932;52.400;9.558;2022-08-11T07:17:08;101813.44;;;23.89;58.20
5812;BME280;2932;52.400;9.558;2022-08-11T07:19:36;101811.72;;;24.20;58.25
5812;BME280;2932;52.400;9.558;2022-08-11T07:22:23;101813.03;;;23.98;57.81
5812;BME280;2932;52.400;9.558;2022-08-11T07:25:14;101810.91;;;24.16;56.98
5812;BME280;2932;52.400;9.558;2022-08-11T07:28:02;101803.44;;;24.57;56.90
5812;BME280;2932;52.400;9.558;2022-08-11T07:30:47;101806.59;;;24.70;55.84
5812;BME280;2932;52.400;9.558;2022-08-11T07:33:18;101807.53;;;24.49;55.81
5812;BME280;2932;52.400;9.558;2022-08-11T07:35:52;101809.88;;;24.62;55.63
5812;BME280;2932;52.400;9.558;2022-08-11T07:38:44;101814.78;;;24.54;55.81
5812;BME280;2932;52.400;9.558;2022-08-11T07:41:16;101811.31;;;24.87;56.02
5812;BME280;2932;52.400;9.558;2022-08-11T07:43:45;101807.63;;;24.94;55.43
5812;BME280;2932;52.400;9.558;2022-08-11T07:46:13;101807.03;;;25.20;54.94
5812;BME280;2932;52.400;9.558;2022-08-11T07:48:58;101799.50;;;25.03;54.13
5812;BME280;2932;52.400;9.558;2022-08-11T07:51:44;101797.00;;;25.12;54.42
5812;BME280;2932;52.400;9.558;2022-08-11T07:54:29;101803.97;;;25.45;54.01
5812;BME280;2932;52.400;9.558;2022-08-11T07:56:55;101792.19;;;25.50;53.79
5812;BME280;2932;52.400;9.558;2022-08-11T07:59:22;101798.19;;;25.56;53.31
5812;BME280;2932;52.400;9.558;2022-08-11T08:02:08;101805.16;;;25.89;53.40
5812;BME280;2932;52.400;9.558;2022-08-11T08:04:53;101807.28;;;26.12;52.83
5812;BME280;2932;52.400;9.558;2022-08-11T08:07:38;101799.56;;;26.12;52.98
5812;BME280;2932;52.400;9.558;2022-08-11T08:10:22;101800.69;;;26.22;53.02
5812;BME280;2932;52.400;9.558;2022-08-11T08:13:06;101807.66;;;26.14;51.15
5812;BME280;2932;52.400;9.558;2022-08-11T08:15:52;101800.72;;;26.18;52.38
5812;BME280;2932;52.400;9.558;2022-08-11T08:18:37;101808.09;;;26.43;51.94
5812;BME280;2932;52.400;9.558;2022-08-11T08:21:04;101803.47;;;26.56;52.12
5812;BME280;2932;52.400;9.558;2022-08-11T08:23:41;101796.28;;;26.48;51.42
5812;BME280;2932;52.400;9.558;2022-08-11T08:26:10;101796.03;;;26.66;51.07
5812;BME280;2932;52.400;9.558;2022-08-11T08:28:58;101792.78;;;26.90;51.08
5812;BME280;2932;52.400;9.558;2022-08-11T08:31:46;101794.19;;;27.29;50.41
5812;BME280;2932;52.400;9.558;2022-08-11T08:34:13;101795.16;;;27.42;49.74
5812;BME280;2932;52.400;9.558;2022-08-11T08:36:42;101800.97;;;27.35;49.44
5812;BME280;2932;52.400;9.558;2022-08-11T08:39:08;101793.59;;;27.18;49.42
5812;BME280;2932;52.400;9.558;2022-08-11T08:41:37;101800.31;;;27.04;49.57
5812;BME280;2932;52.400;9.558;2022-08-11T08:44:08;101788.50;;;27.29;49.90
5812;BME280;2932;52.400;9.558;2022-08-11T08:46:36;101786.78;;;27.59;48.46
5812;BME280;2932;52.400;9.558;2022-08-11T08:49:05;101787.41;;;27.66;48.34
5812;BME280;2932;52.400;9.558;2022-08-11T08:51:35;101786.00;;;27.98;48.74
5812;BME280;2932;52.400;9.558;2022-08-11T08:56:40;101788.59;;;28.08;46.35
5812;BME280;2932;52.400;9.558;2022-08-11T08:59:09;101789.69;;;28.14;47.62
5812;BME280;2932;52.400;9.558;2022-08-11T09:01:48;101789.00;;;28.46;47.38
5812;BME280;2932;52.400;9.558;2022-08-11T09:04:15;101791.44;;;28.80;46.16
5812;BME280;2932;52.400;9.558;2022-08-11T09:06:44;101778.91;;;28.78;45.51
5812;BME280;2932;52.400;9.558;2022-08-11T09:09:11;101782.19;;;28.76;45.54
5812;BME280;2932;52.400;9.558;2022-08-11T09:11:39;101776.78;;;28.82;45.04
5812;BME280;2932;52.400;9.558;2022-08-11T09:14:26;101769.03;;;28.99;44.92
5812;BME280;2932;52.400;9.558;2022-08-11T09:17:17;101771.13;;;29.43;44.47
5812;BME280;2932;52.400;9.558;2022-08-11T09:19:43;101767.09;;;29.57;44.54
5812;BME280;2932;52.400;9.558;2022-08-11T09:22:09;101768.38;;;29.24;43.77
5812;BME280;2932;52.400;9.558;2022-08-11T09:24:54;101762.66;;;29.56;42.74
5812;BME280;2932;52.400;9.558;2022-08-11T09:27:39;101757.91;;;29.78;43.16
5812;BME280;2932;52.400;9.558;2022-08-11T09:30:06;101757.53;;;29.64;41.76
5812;BME280;2932;52.400;9.558;2022-08-11T09:32:32;101758.47;;;29.44;41.61
5812;BME280;2932;52.400;9.558;2022-08-11T09:35:00;101754.91;;;29.24;42.61
5812;BME280;2932;52.400;9.558;2022-08-11T09:37:27;101748.72;;;29.13;41.44
5812;BME280;2932;52.400;9.558;2022-08-11T09:40:13;101747.06;;;29.44;40.36
5812;BME280;2932;52.400;9.558;2022-08-11T09:43:06;101741.66;;;29.63;41.25
5812;BME280;2932;52.400;9.558;2022-08-11T09:45:53;101747.72;;;29.65;41.08
5812;BME280;2932;52.400;9.558;2022-08-11T09:48:23;101746.09;;;29.64;40.28
5812;BME280;2932;52.400;9.558;2022-08-11T09:50:53;101731.66;;;30.25;41.00
5812;BME280;2932;52.400;9.558;2022-08-11T09:53:19;101742.16;;;30.15;40.00
5812;BME280;2932;52.400;9.558;2022-08-11T09:55:45;101736.75;;;30.05;39.44
5812;BME280;2932;52.400;9.558;2022-08-11T09:58:12;101735.03;;;29.95;39.75
5812;BME280;2932;52.400;9.558;2022-08-11T10:00:39;101734.06;;;30.27;39.34
5812;BME280;2932;52.400;9.558;2022-08-11T10:03:21;101731.88;;;30.56;38.63
5812;BME280;2932;52.400;9.558;2022-08-11T10:05:50;101738.66;;;30.62;38.68
5812;BME280;2932;52.400;9.558;2022-08-11T10:08:38;101726.00;;;30.98;39.23
5812;BME280;2932;52.400;9.558;2022-08-11T10:11:07;101716.38;;;30.57;39.56
5812;BME280;2932;52.400;9.558;2022-08-11T10:13:34;101721.38;;;30.78;39.96
5812;BME280;2932;52.400;9.558;2022-08-11T10:16:25;101724.81;;;30.73;38.53
5812;BME280;2932;52.400;9.558;2022-08-11T10:18:54;101712.31;;;30.80;38.25
5812;BME280;2932;52.400;9.558;2022-08-11T10:21:44;101716.16;;;30.99;38.23
5812;BME280;2932;52.400;9.558;2022-08-11T10:24:53;101707.56;;;31.46;38.00
5812;BME280;2932;52.400;9.558;2022-08-11T10:27:41;101703.03;;;31.58;38.42
5812;BME280;2932;52.400;9.558;2022-08-11T10:30:07;101695.50;;;31.95;37.00
5812;BME280;2932;52.400;9.558;2022-08-11T10:32:52;101690.50;;;31.64;37.15
5812;BME280;2932;52.400;9.558;2022-08-11T10:35:37;101701.28;;;31.38;36.43
5812;BME280;2932;52.400;9.558;2022-08-11T10:38:03;101697.63;;;31.16;36.91
5812;BME280;2932;52.400;9.558;2022-08-11T10:40:29;101687.00;;;31.16;36.37
5812;BME280;2932;52.400;9.558;2022-08-11T10:42:59;101677.69;;;31.47;36.79
5812;BME280;2932;52.400;9.558;2022-08-11T10:45:39;101676.56;;;31.44;36.10
5812;BME280;2932;52.400;9.558;2022-08-11T10:48:28;101680.78;;;31.62;36.49
5812;BME280;2932;52.400;9.558;2022-08-11T10:50:55;101670.56;;;31.52;36.95
5812;BME280;2932;52.400;9.558;2022-08-11T10:53:44;101670.47;;;31.64;36.07
5812;BME280;2932;52.400;9.558;2022-08-11T10:56:32;101667.81;;;32.23;35.69
5812;BME280;2932;52.400;9.558;2022-08-11T10:59:17;101669.81;;;32.53;35.59
5812;BME280;2932;52.400;9.558;2022-08-11T11:01:44;101672.50;;;32.38;37.05
5812;BME280;2932;52.400;9.558;2022-08-11T11:04:20;101669.25;;;32.86;35.47
5812;BME280;2932;52.400;9.558;2022-08-11T11:07:07;101660.66;;;33.04;35.38
5812;BME280;2932;52.400;9.558;2022-08-11T11:10:02;101666.56;;;32.91;35.65
5812;BME280;2932;52.400;9.558;2022-08-11T11:15:20;101655.06;;;32.73;35.74
5812;BME280;2932;52.400;9.558;2022-08-11T11:18:09;101663.53;;;33.13;35.18
5812;BME280;2932;52.400;9.558;2022-08-11T11:23:07;101655.88;;;32.83;34.74
5812;BME280;2932;52.400;9.558;2022-08-11T11:25:54;101658.44;;;33.17;34.55
5812;BME280;2932;52.400;9.558;2022-08-11T11:29:21;101647.81;;;33.78;34.45
5812;BME280;2932;52.400;9.558;2022-08-11T11:37:17;101651.06;;;32.70;34.67
5812;BME280;2932;52.400;9.558;2022-08-11T11:39:44;101651.84;;;32.71;34.66
5812;BME280;2932;52.400;9.558;2022-08-11T11:42:10;101642.16;;;32.87;34.55
5812;BME280;2932;52.400;9.558;2022-08-11T11:44:42;101640.69;;;32.55;35.32
5812;BME280;2932;52.400;9.558;2022-08-11T11:47:10;101638.34;;;33.44;35.02
5812;BME280;2932;52.400;9.558;2022-08-11T11:49:36;101640.56;;;33.22;34.15
5812;BME280;2932;52.400;9.558;2022-08-11T11:52:05;101640.75;;;33.00;34.04
5812;BME280;2932;52.400;9.558;2022-08-11T11:54:33;101644.41;;;33.46;33.49
5812;BME280;2932;52.400;9.558;2022-08-11T11:57:01;101636.59;;;33.20;33.85
5812;BME280;2932;52.400;9.558;2022-08-11T11:59:49;101636.94;;;34.57;33.60
5812;BME280;2932;52.400;9.558;2022-08-11T12:02:34;101634.84;;;34.01;33.15
5812;BME280;2932;52.400;9.558;2022-08-11T12:05:01;101630.03;;;34.40;33.19
5812;BME280;2932;52.400;9.558;2022-08-11T12:07:29;101636.03;;;34.51;32.90
5812;BME280;2932;52.400;9.558;2022-08-11T12:10:16;101633.38;;;34.05;33.53
5812;BME280;2932;52.400;9.558;2022-08-11T12:12:42;101640.81;;;34.54;33.17
5812;BME280;2932;52.400;9.558;2022-08-11T12:15:27;101626.94;;;35.15;33.09
5812;BME280;2932;52.400;9.558;2022-08-11T12:17:53;101623.56;;;35.17;32.83
5812;BME280;2932;52.400;9.558;2022-08-11T12:20:21;101612.84;;;35.76;32.48
5812;BME280;2932;52.400;9.558;2022-08-11T12:22:47;101615.97;;;34.90;32.22
5812;BME280;2932;52.400;9.558;2022-08-11T12:25:32;101605.03;;;35.18;32.72
5812;BME280;2932;52.400;9.558;2022-08-11T12:28:17;101610.56;;;34.02;32.34
5812;BME280;2932;52.400;9.558;2022-08-11T12:30:45;101604.56;;;34.24;32.85
5812;BME280;2932;52.400;9.558;2022-08-11T12:33:12;101602.78;;;34.35;32.98
5812;BME280;2932;52.400;9.558;2022-08-11T12:35:38;101601.38;;;34.31;33.39
5812;BME280;2932;52.400;9.558;2022-08-11T12:38:05;101607.41;;;34.81;32.66
5812;BME280;2932;52.400;9.558;2022-08-11T12:40:31;101599.13;;;34.26;32.59
5812;BME280;2932;52.400;9.558;2022-08-11T12:43:17;101590.19;;;34.33;33.29
5812;BME280;2932;52.400;9.558;2022-08-11T12:46:05;101589.44;;;33.90;33.50
5812;BME280;2932;52.400;9.558;2022-08-11T12:48:33;101586.03;;;34.25;33.50
5812;BME280;2932;52.400;9.558;2022-08-11T12:51:23;101576.31;;;35.08;32.57
5812;BME280;2932;52.400;9.558;2022-08-11T12:54:12;101559.88;;;35.38;31.60
5812;BME280;2932;52.400;9.558;2022-08-11T12:56:45;101567.03;;;35.58;32.94
5812;BME280;2932;52.400;9.558;2022-08-11T12:59:31;101566.41;;;35.83;31.89
5812;BME280;2932;52.400;9.558;2022-08-11T13:02:18;101559.50;;;35.46;32.52
5812;BME280;2932;52.400;9.558;2022-08-11T13:05:03;101556.47;;;35.69;31.98
5812;BME280;2932;52.400;9.558;2022-08-11T13:07:31;101571.75;;;34.63;32.52
5812;BME280;2932;52.400;9.558;2022-08-11T13:10:00;101567.28;;;34.62;32.82
5812;BME280;2932;52.400;9.558;2022-08-11T13:12:28;101567.53;;;34.73;32.25
5812;BME280;2932;52.400;9.558;2022-08-11T13:15:18;101555.91;;;34.68;33.09
5812;BME280;2932;52.400;9.558;2022-08-11T13:17:45;101550.59;;;35.64;32.12
5812;BME280;2932;52.400;9.558;2022-08-11T13:20:16;101547.78;;;35.34;32.03
5812;BME280;2932;52.400;9.558;2022-08-11T13:22:45;101548.06;;;35.07;31.72
5812;BME280;2932;52.400;9.558;2022-08-11T13:25:15;101537.91;;;35.26;30.98
5812;BME280;2932;52.400;9.558;2022-08-11T13:27:43;101541.84;;;34.46;31.53
5812;BME280;2932;52.400;9.558;2022-08-11T13:30:10;101551.25;;;34.70;32.26
5812;BME280;2932;52.400;9.558;2022-08-11T13:32:54;101545.97;;;35.07;32.13
5812;BME280;2932;52.400;9.558;2022-08-11T13:35:21;101534.50;;;35.87;30.88
5812;BME280;2932;52.400;9.558;2022-08-11T13:37:48;101533.28;;;35.43;31.69
5812;BME280;2932;52.400;9.558;2022-08-11T13:40:17;101529.06;;;36.09;31.49
5812;BME280;2932;52.400;9.558;2022-08-11T13:42:44;101532.25;;;36.52;31.00
5812;BME280;2932;52.400;9.558;2022-08-11T13:45:11;101527.72;;;36.45;30.46
5812;BME280;2932;52.400;9.558;2022-08-11T13:47:39;101533.72;;;36.06;30.56
5812;BME280;2932;52.400;9.558;2022-08-11T13:50:06;101531.25;;;35.20;30.99
5812;BME280;2932;52.400;9.558;2022-08-11T13:52:34;101537.00;;;34.91;31.49
5812;BME280;2932;52.400;9.558;2022-08-11T13:55:00;101530.59;;;35.40;31.03
5812;BME280;2932;52.400;9.558;2022-08-11T13:57:30;101528.66;;;35.81;31.88
5812;BME280;2932;52.400;9.558;2022-08-11T13:59:58;101519.22;;;35.66;30.62
5812;BME280;2932;52.400;9.558;2022-08-11T14:02:35;101517.53;;;35.89;30.71
5812;BME280;2932;52.400;9.558;2022-08-11T14:05:09;101517.13;;;35.66;30.85
5812;BME280;2932;52.400;9.558;2022-08-11T14:07:45;101513.13;;;36.14;31.25
5812;BME280;2932;52.400;9.558;2022-08-11T14:10:13;101504.19;;;35.41;30.98
5812;BME280;2932;52.400;9.558;2022-08-11T14:12:42;101511.16;;;35.35;31.03
5812;BME280;2932;52.400;9.558;2022-08-11T14:15:33;101506.31;;;35.76;31.19
5812;BME280;2932;52.400;9.558;2022-08-11T14:18:24;101509.75;;;35.30;30.74
5812;BME280;2932;52.400;9.558;2022-08-11T14:20:59;101513.03;;;35.08;31.83
5812;BME280;2932;52.400;9.558;2022-08-11T14:23:49;101505.09;;;35.18;31.50
5812;BME280;2932;52.400;9.558;2022-08-11T14:26:20;101494.88;;;35.17;31.55
5812;BME280;2932;52.400;9.558;2022-08-11T14:29:05;101499.78;;;34.72;31.46
5812;BME280;2932;52.400;9.558;2022-08-11T14:31:33;101496.84;;;34.19;31.91
5812;BME280;2932;52.400;9.558;2022-08-11T14:34:05;101498.06;;;34.27;32.58
5812;BME280;2932;52.400;9.558;2022-08-11T14:36:38;101492.28;;;33.89;32.68
5812;BME280;2932;52.400;9.558;2022-08-11T14:39:08;101498.34;;;34.38;32.72
5812;BME280;2932;52.400;9.558;2022-08-11T14:41:38;101480.78;;;34.12;33.22
5812;BME280;2932;52.400;9.558;2022-08-11T14:44:22;101485.03;;;34.41;32.62
5812;BME280;2932;52.400;9.558;2022-08-11T14:47:07;101475.13;;;34.81;32.94
5812;BME280;2932;52.400;9.558;2022-08-11T14:49:36;101471.38;;;35.04;32.75
5812;BME280;2932;52.400;9.558;2022-08-11T14:52:10;101470.78;;;35.00;32.81
5812;BME280;2932;52.400;9.558;2022-08-11T14:54:42;101483.22;;;34.67;33.05
5812;BME280;2932;52.400;9.558;2022-08-11T14:57:27;101486.91;;;34.68;33.08
5812;BME280;2932;52.400;9.558;2022-08-11T14:59:54;101474.59;;;34.29;33.27
5812;BME280;2932;52.400;9.558;2022-08-11T15:02:22;101483.91;;;34.24;32.90
5812;BME280;2932;52.400;9.558;2022-08-11T15:05:06;101476.69;;;34.67;32.91
5812;BME280;2932;52.400;9.558;2022-08-11T15:07:32;101472.28;;;34.18;33.18
5812;BME280;2932;52.400;9.558;2022-08-11T15:10:00;101474.78;;;34.25;32.60
5812;BME280;2932;52.400;9.558;2022-08-11T15:12:28;101469.75;;;33.96;32.71
5812;BME280;2932;52.400;9.558;2022-08-11T15:14:55;101475.25;;;34.33;32.58
5812;BME280;2932;52.400;9.558;2022-08-11T15:17:40;101468.09;;;33.71;32.25
5812;BME280;2932;52.400;9.558;2022-08-11T15:20:11;101475.06;;;33.56;32.10
5812;BME280;2932;52.400;9.558;2022-08-11T15:22:56;101461.66;;;33.86;32.59
5812;BME280;2932;52.400;9.558;2022-08-11T15:25:49;101461.53;;;33.80;32.60
5812;BME280;2932;52.400;9.558;2022-08-11T15:28:17;101470.66;;;33.69;32.25
5812;BME280;2932;52.400;9.558;2022-08-11T15:31:03;101462.16;;;33.51;32.22
5812;BME280;2932;52.400;9.558;2022-08-11T15:33:51;101456.34;;;33.60;32.37
5812;BME280;2932;52.400;9.558;2022-08-11T15:36:36;101447.16;;;33.56;32.72
5812;BME280;2932;52.400;9.558;2022-08-11T15:39:25;101448.47;;;33.46;32.66
5812;BME280;2932;52.400;9.558;2022-08-11T15:42:12;101451.81;;;33.44;33.26
5812;BME280;2932;52.400;9.558;2022-08-11T15:44:59;101449.09;;;33.83;33.72
5812;BME280;2932;52.400;9.558;2022-08-11T15:47:54;101436.25;;;33.93;33.69
5812;BME280;2932;52.400;9.558;2022-08-11T15:50:27;101441.19;;;33.27;33.58
5812;BME280;2932;52.400;9.558;2022-08-11T15:53:08;101435.31;;;33.21;33.65
5812;BME280;2932;52.400;9.558;2022-08-11T15:55:36;101436.09;;;33.31;33.75
5812;BME280;2932;52.400;9.558;2022-08-11T15:58:06;101430.50;;;33.36;33.88
5812;BME280;2932;52.400;9.558;2022-08-11T16:00:52;101432.22;;;33.01;33.57
5812;BME280;2932;52.400;9.558;2022-08-11T16:03:49;101430.13;;;33.01;33.57
5812;BME280;2932;52.400;9.558;2022-08-11T16:09:07;101425.44;;;32.53;34.34
5812;BME280;2932;52.400;9.558;2022-08-11T16:11:34;101418.56;;;32.68;34.44
5812;BME280;2932;52.400;9.558;2022-08-11T16:14:02;101420.88;;;32.37;34.54
5812;BME280;2932;52.400;9.558;2022-08-11T16:16:48;101416.72;;;32.38;33.69
5812;BME280;2932;52.400;9.558;2022-08-11T16:19:15;101415.28;;;32.24;34.21
5812;BME280;2932;52.400;9.558;2022-08-11T16:21:43;101414.47;;;31.96;34.42
5812;BME280;2932;52.400;9.558;2022-08-11T16:24:12;101414.13;;;31.85;34.80
5812;BME280;2932;52.400;9.558;2022-08-11T16:26:41;101405.56;;;31.94;34.12
5812;BME280;2932;52.400;9.558;2022-08-11T16:29:09;101398.88;;;32.15;34.32
5812;BME280;2932;52.400;9.558;2022-08-11T16:31:35;101406.50;;;32.00;34.44
5812;BME280;2932;52.400;9.558;2022-08-11T16:34:02;101405.81;;;31.69;34.43
5812;BME280;2932;52.400;9.558;2022-08-11T16:36:29;101408.00;;;31.65;34.53
5812;BME280;2932;52.400;9.558;2022-08-11T16:39:14;101404.31;;;31.46;34.26
5812;BME280;2932;52.400;9.558;2022-08-11T16:41:43;101399.25;;;31.50;34.28
5812;BME280;2932;52.400;9.558;2022-08-11T16:44:28;101413.16;;;31.79;34.69
5812;BME280;2932;52.400;9.558;2022-08-11T16:47:15;101403.63;;;31.82;34.73
5812;BME280;2932;52.400;9.558;2022-08-11T16:49:46;101397.25;;;31.78;34.78
5812;BME280;2932;52.400;9.558;2022-08-11T16:52:13;101396.94;;;31.76;34.95
5812;BME280;2932;52.400;9.558;2022-08-11T16:54:39;101392.19;;;31.82;35.11
5812;BME280;2932;52.400;9.558;2022-08-11T16:57:12;101399.03;;;31.85;34.66
5812;BME280;2932;52.400;9.558;2022-08-11T17:00:01;101393.38;;;31.54;34.72
5812;BME280;2932;52.400;9.558;2022-08-11T17:02:31;101391.13;;;31.39;34.60
5812;BME280;2932;52.400;9.558;2022-08-11T17:05:17;101395.28;;;31.47;35.12
5812;BME280;2932;52.400;9.558;2022-08-11T17:08:04;101389.63;;;31.26;34.99
5812;BME280;2932;52.400;9.558;2022-08-11T17:11:10;101400.13;;;30.98;34.84